sensor_id;sensor_type;location;lat;lon;timestamp;pressure;altitude;pressure_sealevel;temperature;humidity
48964;BME280;34776;48.180;16.420;2023-02-27T00:01:25;100206.22;;;1.32;57.79
48964;BME280;34776;48.180;16.420;2023-02-27T00:03:50;100196.66;;;1.29;57.94
48964;BME280;34776;48.180;16.420;2023-02-27T00:06:16;100201.88;;;1.28;57.93
48964;BME280;34776;48.180;16.420;2023-02-27T00:08:42;100202.78;;;1.28;58.00
48964;BME280;34776;48.180;16.420;2023-02-27T00:11:07;100205.41;;;1.28;57.94
48964;BME280;34776;48.180;16.420;2023-02-27T00:13:34;100208.03;;;1.27;58.04
48964;BME280;34776;48.180;16.420;2023-02-27T00:15:59;100218.50;;;1.27;58.24
48964;BME280;34776;48.180;16.420;2023-02-27T00:18:24;100211.53;;;1.24;58.38
48964;BME280;34776;48.180;16.420;2023-02-27T00:20:49;100210.69;;;1.22;58.56
48964;BME280;34776;48.180;16.420;2023-02-27T00:23:15;100221.16;;;1.22;58.61
48964;BME280;34776;48.180;16.420;2023-02-27T00:25:40;100223.72;;;1.28;58.64
48964;BME280;34776;48.180;16.420;2023-02-27T00:28:06;100221.06;;;1.31;58.64
48964;BME280;34776;48.180;16.420;2023-02-27T00:30:31;100226.28;;;1.34;58.88
48964;BME280;34776;48.180;16.420;2023-02-27T00:32:57;100225.41;;;1.37;58.97
48964;BME280;34776;48.180;16.420;2023-02-27T00:35:22;100227.97;;;1.43;58.92
48964;BME280;34776;48.180;16.420;2023-02-27T00:37:48;100234.91;;;1.49;58.87
48964;BME280;34776;48.180;16.420;2023-02-27T00:40:14;100231.38;;;1.56;58.57
48964;BME280;34776;48.180;16.420;2023-02-27T00:42:39;100228.72;;;1.59;58.66
48964;BME280;34776;48.180;16.420;2023-02-27T00:45:05;100233.94;;;1.60;58.57
48964;BME280;34776;48.180;16.420;2023-02-27T00:47:32;100238.31;;;1.58;58.90
48964;BME280;34776;48.180;16.420;2023-02-27T00:49:58;100242.72;;;1.56;59.01
48964;BME280;34776;48.180;16.420;2023-02-27T00:52:23;100242.72;;;1.58;59.07
48964;BME280;34776;48.180;16.420;2023-02-27T00:54:48;100239.16;;;1.63;59.13
48964;BME280;34776;48.180;16.420;2023-02-27T00:57:14;100233.00;;;1.69;59.06
48964;BME280;34776;48.180;16.420;2023-02-27T00:59:39;100242.53;;;1.76;59.03
48964;BME280;34776;48.180;16.420;2023-02-27T01:02:05;100236.38;;;1.83;58.88
48964;BME280;34776;48.180;16.420;2023-02-27T01:04:30;100248.56;;;1.89;58.90
48964;BME280;34776;48.180;16.420;2023-02-27T01:06:56;100238.03;;;1.94;58.39
48964;BME280;34776;48.180;16.420;2023-02-27T01:09:21;100243.28;;;1.94;58.57
48964;BME280;34776;48.180;16.420;2023-02-27T01:11:47;100241.47;;;1.99;58.45
48964;BME280;34776;48.180;16.420;2023-02-27T01:14:12;100250.19;;;2.01;58.36
48964;BME280;34776;48.180;16.420;2023-02-27T01:16:39;100245.78;;;2.05;58.42
48964;BME280;34776;48.180;16.420;2023-02-27T01:19:04;100247.50;;;2.09;58.22
48964;BME280;34776;48.180;16.420;2023-02-27T01:21:29;100249.22;;;2.10;58.36
48964;BME280;34776;48.180;16.420;2023-02-27T01:23:55;100246.59;;;2.11;58.21
48964;BME280;34776;48.180;16.420;2023-02-27T01:26:20;100248.34;;;2.12;58.03
48964;BME280;34776;48.180;16.420;2023-02-27T01:28:45;100253.59;;;2.09;58.09
48964;BME280;34776;48.180;16.420;2023-02-27T01:31:11;100260.59;;;2.10;58.21
48964;BME280;34776;48.180;16.420;2023-02-27T01:33:37;100262.31;;;2.11;58.12
48964;BME280;34776;48.180;16.420;2023-02-27T01:36:02;100251.78;;;2.17;58.30
48964;BME280;34776;48.180;16.420;2023-02-27T01:38:28;100257.03;;;2.17;57.91
48964;BME280;34776;48.180;16.420;2023-02-27T01:40:53;100255.25;;;2.19;58.13
48964;BME280;34776;48.180;16.420;2023-02-27T01:43:20;100258.72;;;2.21;58.03
48964;BME280;34776;48.180;16.420;2023-02-27T01:45:46;100256.06;;;2.24;57.74
48964;BME280;34776;48.180;16.420;2023-02-27T01:48:33;100255.25;;;2.19;57.92
48964;BME280;34776;48.180;16.420;2023-02-27T01:51:07;100253.44;;;2.24;57.90
48964;BME280;34776;48.180;16.420;2023-02-27T01:53:34;100261.31;;;2.26;57.91
48964;BME280;34776;48.180;16.420;2023-02-27T01:56:07;100248.28;;;2.18;57.79
48964;BME280;34776;48.180;16.420;2023-02-27T01:58:34;100246.53;;;2.17;57.66
48964;BME280;34776;48.180;16.420;2023-02-27T02:01:00;100236.03;;;2.17;57.81
48964;BME280;34776;48.180;16.420;2023-02-27T02:06:02;100243.97;;;2.10;57.41
48964;BME280;34776;48.180;16.420;2023-02-27T02:08:33;100250.13;;;2.10;57.49
48964;BME280;34776;48.180;16.420;2023-02-27T02:10:59;100247.50;;;2.09;57.39
48964;BME280;34776;48.180;16.420;2023-02-27T02:13:25;100258.00;;;2.06;57.33
48964;BME280;34776;48.180;16.420;2023-02-27T02:18:52;100252.69;;;2.13;57.05
48964;BME280;34776;48.180;16.420;2023-02-27T02:24:39;100251.84;;;2.10;56.60
48964;BME280;34776;48.180;16.420;2023-02-27T02:27:24;100250.91;;;2.15;56.57
48964;BME280;34776;48.180;16.420;2023-02-27T02:33:18;100244.88;;;2.10;55.96
48964;BME280;34776;48.180;16.420;2023-02-27T02:41:52;100255.38;;;2.07;55.92
48964;BME280;34776;48.180;16.420;2023-02-27T02:55:49;100266.75;;;2.06;55.73
48964;BME280;34776;48.180;16.420;2023-02-27T02:58:31;100268.53;;;1.99;55.59
48964;BME280;34776;48.180;16.420;2023-02-27T03:01:17;100266.84;;;1.94;55.47
48964;BME280;34776;48.180;16.420;2023-02-27T03:04:03;100266.81;;;1.97;55.71
48964;BME280;34776;48.180;16.420;2023-02-27T03:06:37;100273.75;;;2.02;55.76
48964;BME280;34776;48.180;16.420;2023-02-27T03:09:09;100277.19;;;2.08;55.64
48964;BME280;34776;48.180;16.420;2023-02-27T03:11:39;100272.88;;;2.05;55.57
48964;BME280;34776;48.180;16.420;2023-02-27T03:14:16;100275.56;;;1.96;55.45
48964;BME280;34776;48.180;16.420;2023-02-27T03:16:46;100281.78;;;1.82;55.41
48964;BME280;34776;48.180;16.420;2023-02-27T03:19:20;100290.63;;;1.72;55.88
48964;BME280;34776;48.180;16.420;2023-02-27T03:22:00;100288.88;;;1.71;55.81
48964;BME280;34776;48.180;16.420;2023-02-27T03:24:43;100293.25;;;1.72;55.71
48964;BME280;34776;48.180;16.420;2023-02-27T03:27:11;100294.03;;;1.83;55.76
48964;BME280;34776;48.180;16.420;2023-02-27T03:29:46;100295.78;;;1.81;55.35
48964;BME280;34776;48.180;16.420;2023-02-27T03:32:22;100294.09;;;1.71;55.61
48964;BME280;34776;48.180;16.420;2023-02-27T03:34:49;100302.78;;;1.76;55.64
48964;BME280;34776;48.180;16.420;2023-02-27T03:39:49;100313.28;;;1.76;55.48
48964;BME280;34776;48.180;16.420;2023-02-27T03:42:30;100316.75;;;1.81;55.41
48964;BME280;34776;48.180;16.420;2023-02-27T03:45:39;100314.16;;;1.75;55.02
48964;BME280;34776;48.180;16.420;2023-02-27T03:48:06;100311.59;;;1.72;55.45
48964;BME280;34776;48.180;16.420;2023-02-27T03:50:34;100318.63;;;1.62;55.13
48964;BME280;34776;48.180;16.420;2023-02-27T03:53:04;100324.84;;;1.49;55.15
48964;BME280;34776;48.180;16.420;2023-02-27T03:55:36;100327.53;;;1.35;55.34
48964;BME280;34776;48.180;16.420;2023-02-27T03:58:04;100325.81;;;1.28;55.49
48964;BME280;34776;48.180;16.420;2023-02-27T04:00:29;100331.06;;;1.25;55.65
48964;BME280;34776;48.180;16.420;2023-02-27T04:02:57;100327.59;;;1.20;55.70
48964;BME280;34776;48.180;16.420;2023-02-27T04:05:23;100330.19;;;1.21;55.87
48964;BME280;34776;48.180;16.420;2023-02-27T04:13:46;100332.72;;;1.41;55.37
48964;BME280;34776;48.180;16.420;2023-02-27T04:16:27;100330.94;;;1.50;55.05
48964;BME280;34776;48.180;16.420;2023-02-27T04:19:00;100339.63;;;1.58;55.04
48964;BME280;34776;48.180;16.420;2023-02-27T04:21:58;100341.34;;;1.59;54.14
48964;BME280;34776;48.180;16.420;2023-02-27T04:24:35;100336.09;;;1.60;54.66
48964;BME280;34776;48.180;16.420;2023-02-27T04:27:36;100328.31;;;1.50;53.88
48964;BME280;34776;48.180;16.420;2023-02-27T04:30:29;100339.63;;;1.56;54.01
48964;BME280;34776;48.180;16.420;2023-02-27T04:33:20;100336.09;;;1.62;54.01
48964;BME280;34776;48.180;16.420;2023-02-27T04:35:59;100343.06;;;1.63;53.88
48964;BME280;34776;48.180;16.420;2023-02-27T04:38:38;100350.94;;;1.58;53.82
48964;BME280;34776;48.180;16.420;2023-02-27T04:41:26;100350.06;;;1.59;53.19
48964;BME280;34776;48.180;16.420;2023-02-27T04:43:53;100356.16;;;1.65;54.00
48964;BME280;34776;48.180;16.420;2023-02-27T04:46:22;100352.66;;;1.66;53.85
48964;BME280;34776;48.180;16.420;2023-02-27T04:51:54;100356.16;;;1.66;53.45
48964;BME280;34776;48.180;16.420;2023-02-27T04:54:25;100350.09;;;1.55;53.62
48964;BME280;34776;48.180;16.420;2023-02-27T04:56:55;100354.47;;;1.56;53.54
48964;BME280;34776;48.180;16.420;2023-02-27T04:59:26;100356.19;;;1.55;53.67
48964;BME280;34776;48.180;16.420;2023-02-27T05:02:07;100351.84;;;1.54;53.31
48964;BME280;34776;48.180;16.420;2023-02-27T05:04:38;100357.09;;;1.53;53.66
48964;BME280;34776;48.180;16.420;2023-02-27T05:07:08;100360.59;;;1.52;53.81
48964;BME280;34776;48.180;16.420;2023-02-27T05:09:41;100366.72;;;1.46;53.71
48964;BME280;34776;48.180;16.420;2023-02-27T05:15:04;100376.31;;;1.52;53.56
48964;BME280;34776;48.180;16.420;2023-02-27T05:20:01;100372.88;;;1.42;53.61
48964;BME280;34776;48.180;16.420;2023-02-27T05:25:34;100381.59;;;1.39;53.24
48964;BME280;34776;48.180;16.420;2023-02-27T05:28:05;100376.38;;;1.41;53.58
48964;BME280;34776;48.180;16.420;2023-02-27T05:30:42;100376.38;;;1.39;53.23
48964;BME280;34776;48.180;16.420;2023-02-27T05:35:51;100378.13;;;1.34;53.47
48964;BME280;34776;48.180;16.420;2023-02-27T05:38:33;100383.38;;;1.31;53.44
48964;BME280;34776;48.180;16.420;2023-02-27T05:41:07;100383.41;;;1.25;53.59
48964;BME280;34776;48.180;16.420;2023-02-27T05:43:38;100391.25;;;1.24;53.77
48964;BME280;34776;48.180;16.420;2023-02-27T05:46:12;100389.56;;;1.15;53.62
48964;BME280;34776;48.180;16.420;2023-02-27T05:48:43;100396.56;;;1.16;53.78
48964;BME280;34776;48.180;16.420;2023-02-27T05:51:12;100395.69;;;1.14;53.82
48964;BME280;34776;48.180;16.420;2023-02-27T05:53:44;100402.66;;;1.12;53.87
48964;BME280;34776;48.180;16.420;2023-02-27T05:56:11;100412.28;;;1.10;53.74
48964;BME280;34776;48.180;16.420;2023-02-27T05:58:42;100407.03;;;1.08;53.55
48964;BME280;34776;48.180;16.420;2023-02-27T06:01:10;100409.69;;;1.05;53.68
48964;BME280;34776;48.180;16.420;2023-02-27T06:03:39;100422.72;;;1.07;53.54
48964;BME280;34776;48.180;16.420;2023-02-27T06:06:07;100421.84;;;1.11;53.30
48964;BME280;34776;48.180;16.420;2023-02-27T06:08:33;100428.84;;;1.12;53.39
48964;BME280;34776;48.180;16.420;2023-02-27T06:10:59;100431.41;;;1.23;53.24
48964;BME280;34776;48.180;16.420;2023-02-27T06:13:25;100432.25;;;1.32;53.45
48964;BME280;34776;48.180;16.420;2023-02-27T06:15:50;100433.97;;;1.39;53.57
48964;BME280;34776;48.180;16.420;2023-02-27T06:18:16;100438.31;;;1.42;53.31
48964;BME280;34776;48.180;16.420;2023-02-27T06:20:43;100447.91;;;1.46;53.23
48964;BME280;34776;48.180;16.420;2023-02-27T06:23:09;100444.41;;;1.52;53.00
48964;BME280;34776;48.180;16.420;2023-02-27T06:25:36;100444.41;;;1.52;52.92
48964;BME280;34776;48.180;16.420;2023-02-27T06:28:02;100448.75;;;1.53;52.87
48964;BME280;34776;48.180;16.420;2023-02-27T06:30:27;100447.88;;;1.51;52.96
48964;BME280;34776;48.180;16.420;2023-02-27T06:32:53;100449.66;;;1.52;52.96
48964;BME280;34776;48.180;16.420;2023-02-27T06:35:19;100454.88;;;1.49;52.77
48964;BME280;34776;48.180;16.420;2023-02-27T06:37:44;100455.78;;;1.48;52.69
48964;BME280;34776;48.180;16.420;2023-02-27T06:40:10;100459.22;;;1.59;52.71
48964;BME280;34776;48.180;16.420;2023-02-27T06:42:44;100463.53;;;1.69;52.21
48964;BME280;34776;48.180;16.420;2023-02-27T06:45:11;100468.78;;;1.72;52.55
48964;BME280;34776;48.180;16.420;2023-02-27T06:47:38;100473.09;;;1.79;52.50
48964;BME280;34776;48.180;16.420;2023-02-27T06:50:04;100479.19;;;1.81;52.33
48964;BME280;34776;48.180;16.420;2023-02-27T06:52:30;100474.81;;;1.83;52.32
48964;BME280;34776;48.180;16.420;2023-02-27T06:54:55;100477.41;;;1.87;52.16
48964;BME280;34776;48.180;16.420;2023-02-27T06:57:21;100481.78;;;1.85;51.97
48964;BME280;34776;48.180;16.420;2023-02-27T06:59:46;100490.47;;;1.94;51.92
48964;BME280;34776;48.180;16.420;2023-02-27T07:02:13;100494.81;;;2.06;51.70
48964;BME280;34776;48.180;16.420;2023-02-27T07:04:38;100501.75;;;2.16;51.69
48964;BME280;34776;48.180;16.420;2023-02-27T07:07:04;100501.72;;;2.19;51.65
48964;BME280;34776;48.180;16.420;2023-02-27T07:09:29;100499.88;;;2.31;51.35
48964;BME280;34776;48.180;16.420;2023-02-27T07:11:54;100501.59;;;2.38;51.20
48964;BME280;34776;48.180;16.420;2023-02-27T07:14:20;100501.47;;;2.56;51.24
48964;BME280;34776;48.180;16.420;2023-02-27T07:16:45;100504.00;;;2.64;50.71
48964;BME280;34776;48.180;16.420;2023-02-27T07:19:17;100503.09;;;2.70;50.62
48964;BME280;34776;48.180;16.420;2023-02-27T07:21:43;100508.25;;;2.79;50.28
48964;BME280;34776;48.180;16.420;2023-02-27T07:24:09;100505.53;;;2.91;50.26
48964;BME280;34776;48.180;16.420;2023-02-27T07:26:35;100503.72;;;2.99;50.06
48964;BME280;34776;48.180;16.420;2023-02-27T07:29:00;100501.03;;;3.07;49.85
48964;BME280;34776;48.180;16.420;2023-02-27T07:31:26;100502.69;;;3.13;49.60
48964;BME280;34776;48.180;16.420;2023-02-27T07:33:51;100503.53;;;3.19;49.44
48964;BME280;34776;48.180;16.420;2023-02-27T07:36:16;100506.06;;;3.30;49.04
48964;BME280;34776;48.180;16.420;2023-02-27T07:38:42;100498.00;;;3.44;48.93
48964;BME280;34776;48.180;16.420;2023-02-27T07:41:07;100501.34;;;3.61;48.86
48964;BME280;34776;48.180;16.420;2023-02-27T07:43:32;100505.63;;;3.67;48.04
48964;BME280;34776;48.180;16.420;2023-02-27T07:45:58;100494.38;;;3.56;47.90
48964;BME280;34776;48.180;16.420;2023-02-27T07:48:23;100495.16;;;3.64;48.01
48964;BME280;34776;48.180;16.420;2023-02-27T07:50:49;100502.19;;;3.62;47.59
48964;BME280;34776;48.180;16.420;2023-02-27T07:53:14;100493.47;;;3.60;47.22
48964;BME280;34776;48.180;16.420;2023-02-27T07:55:39;100495.59;;;3.97;47.50
48964;BME280;34776;48.180;16.420;2023-02-27T07:58:05;100490.91;;;4.78;46.00
48964;BME280;34776;48.180;16.420;2023-02-27T08:00:30;100497.69;;;4.91;45.21
48964;BME280;34776;48.180;16.420;2023-02-27T08:02:56;100490.03;;;5.72;44.78
48964;BME280;34776;48.180;16.420;2023-02-27T08:05:21;100491.84;;;6.87;43.12
48964;BME280;34776;48.180;16.420;2023-02-27T08:07:46;100490.88;;;8.16;41.22
48964;BME280;34776;48.180;16.420;2023-02-27T08:10:12;100486.53;;;9.48;39.98
48964;BME280;34776;48.180;16.420;2023-02-27T08:12:39;100500.88;;;10.15;38.06
48964;BME280;34776;48.180;16.420;2023-02-27T08:15:05;100498.81;;;9.26;37.92
48964;BME280;34776;48.180;16.420;2023-02-27T08:17:31;100501.63;;;8.40;38.29
48964;BME280;34776;48.180;16.420;2023-02-27T08:19:56;100498.88;;;7.53;38.33
48964;BME280;34776;48.180;16.420;2023-02-27T08:22:21;100506.06;;;7.16;39.60
48964;BME280;34776;48.180;16.420;2023-02-27T08:24:47;100510.66;;;7.43;39.69
48964;BME280;34776;48.180;16.420;2023-02-27T08:27:12;100512.31;;;7.13;39.45
48964;BME280;34776;48.180;16.420;2023-02-27T08:29:39;100507.16;;;7.08;39.55
48964;BME280;34776;48.180;16.420;2023-02-27T08:32:05;100510.69;;;7.07;39.21
48964;BME280;34776;48.180;16.420;2023-02-27T08:34:30;100509.78;;;7.74;39.61
48964;BME280;34776;48.180;16.420;2023-02-27T08:36:56;100517.41;;;10.00;37.12
48964;BME280;34776;48.180;16.420;2023-02-27T08:39:21;100516.00;;;10.81;34.69
48964;BME280;34776;48.180;16.420;2023-02-27T08:41:49;100513.59;;;9.83;35.06
48964;BME280;34776;48.180;16.420;2023-02-27T08:44:14;100512.41;;;8.63;35.85
48964;BME280;34776;48.180;16.420;2023-02-27T08:46:40;100524.81;;;7.72;37.58
48964;BME280;34776;48.180;16.420;2023-02-27T08:49:05;100523.69;;;7.17;37.97
48964;BME280;34776;48.180;16.420;2023-02-27T08:51:30;100537.56;;;6.53;38.27
48964;BME280;34776;48.180;16.420;2023-02-27T08:53:56;100533.09;;;6.16;39.11
48964;BME280;34776;48.180;16.420;2023-02-27T08:56:26;100537.06;;;5.92;38.84
48964;BME280;34776;48.180;16.420;2023-02-27T08:58:53;100528.69;;;6.15;39.39
48964;BME280;34776;48.180;16.420;2023-02-27T09:01:19;100529.81;;;6.83;38.68
48964;BME280;34776;48.180;16.420;2023-02-27T09:03:44;100536.66;;;6.54;37.95
48964;BME280;34776;48.180;16.420;2023-02-27T09:06:10;100533.56;;;5.92;38.74
48964;BME280;34776;48.180;16.420;2023-02-27T09:08:36;100527.75;;;5.76;39.02
48964;BME280;34776;48.180;16.420;2023-02-27T09:11:01;100529.81;;;5.60;39.31
48964;BME280;34776;48.180;16.420;2023-02-27T09:13:27;100534.91;;;5.69;39.41
48964;BME280;34776;48.180;16.420;2023-02-27T09:15:53;100529.16;;;5.48;39.37
48964;BME280;34776;48.180;16.420;2023-02-27T09:18:19;100527.59;;;5.38;39.56
48964;BME280;34776;48.180;16.420;2023-02-27T09:20:44;100527.41;;;5.47;39.66
48964;BME280;34776;48.180;16.420;2023-02-27T09:23:10;100523.91;;;5.48;39.69
48964;BME280;34776;48.180;16.420;2023-02-27T09:25:35;100542.31;;;5.97;39.66
48964;BME280;34776;48.180;16.420;2023-02-27T09:28:00;100539.56;;;6.01;38.99
48964;BME280;34776;48.180;16.420;2023-02-27T09:30:26;100537.50;;;5.72;39.10
48964;BME280;34776;48.180;16.420;2023-02-27T09:32:52;100530.75;;;5.57;39.32
48964;BME280;34776;48.180;16.420;2023-02-27T09:35:17;100530.84;;;5.53;39.16
48964;BME280;34776;48.180;16.420;2023-02-27T09:37:45;100541.47;;;5.93;39.95
48964;BME280;34776;48.180;16.420;2023-02-27T09:42:45;100531.97;;;7.37;38.05
48964;BME280;34776;48.180;16.420;2023-02-27T09:45:28;100549.19;;;6.82;37.00
48964;BME280;34776;48.180;16.420;2023-02-27T09:50:43;100553.69;;;6.41;39.30
48964;BME280;34776;48.180;16.420;2023-02-27T09:53:23;100556.00;;;6.14;37.98
48964;BME280;34776;48.180;16.420;2023-02-27T09:55:52;100562.25;;;5.65;39.83
48964;BME280;34776;48.180;16.420;2023-02-27T09:58:29;100560.91;;;5.42;39.74
48964;BME280;34776;48.180;16.420;2023-02-27T10:06:21;100567.66;;;5.07;41.03
48964;BME280;34776;48.180;16.420;2023-02-27T10:08:58;100562.19;;;5.18;40.88
48964;BME280;34776;48.180;16.420;2023-02-27T10:15:00;100564.81;;;5.20;40.83
48964;BME280;34776;48.180;16.420;2023-02-27T10:17:13;100567.06;;;5.41;40.30
48964;BME280;34776;48.180;16.420;2023-02-27T10:19:42;100570.44;;;5.49;40.24
48964;BME280;34776;48.180;16.420;2023-02-27T10:22:12;100570.72;;;5.33;40.15
48964;BME280;34776;48.180;16.420;2023-02-27T10:24:43;100569.22;;;5.19;40.02
48964;BME280;34776;48.180;16.420;2023-02-27T10:27:15;100556.06;;;5.18;40.35
48964;BME280;34776;48.180;16.420;2023-02-27T10:29:41;100562.81;;;5.34;40.87
48964;BME280;34776;48.180;16.420;2023-02-27T10:32:28;100565.34;;;5.40;39.57
48964;BME280;34776;48.180;16.420;2023-02-27T10:35:31;100566.06;;;5.48;39.52
48964;BME280;34776;48.180;16.420;2023-02-27T10:38:02;100574.81;;;5.51;40.39
48964;BME280;34776;48.180;16.420;2023-02-27T10:40:29;100572.22;;;5.47;40.58
48964;BME280;34776;48.180;16.420;2023-02-27T10:42:57;100569.53;;;5.51;40.64
48964;BME280;34776;48.180;16.420;2023-02-27T10:45:24;100570.34;;;5.54;40.72
48964;BME280;34776;48.180;16.420;2023-02-27T10:47:49;100567.22;;;5.80;40.75
48964;BME280;34776;48.180;16.420;2023-02-27T10:52:55;100556.59;;;6.27;40.21
48964;BME280;34776;48.180;16.420;2023-02-27T10:55:33;100558.06;;;6.40;39.86
48964;BME280;34776;48.180;16.420;2023-02-27T10:58:01;100546.88;;;6.30;39.74
48964;BME280;34776;48.180;16.420;2023-02-27T11:00:39;100559.47;;;6.16;39.81
48964;BME280;34776;48.180;16.420;2023-02-27T11:03:05;100556.25;;;6.02;40.02
48964;BME280;34776;48.180;16.420;2023-02-27T11:05:34;100551.16;;;5.93;40.21
48964;BME280;34776;48.180;16.420;2023-02-27T11:10:36;100540.16;;;5.69;40.28
48964;BME280;34776;48.180;16.420;2023-02-27T11:13:04;100541.72;;;5.81;40.40
48964;BME280;34776;48.180;16.420;2023-02-27T11:15:38;100553.72;;;5.94;39.58
48964;BME280;34776;48.180;16.420;2023-02-27T11:18:27;100537.53;;;5.69;40.41
48964;BME280;34776;48.180;16.420;2023-02-27T11:21:27;100542.69;;;5.75;40.57
48964;BME280;34776;48.180;16.420;2023-02-27T11:23:59;100535.91;;;5.63;40.80
48964;BME280;34776;48.180;16.420;2023-02-27T11:31:33;100544.34;;;6.26;40.42
48964;BME280;34776;48.180;16.420;2023-02-27T11:34:01;100533.00;;;6.60;40.38
48964;BME280;34776;48.180;16.420;2023-02-27T11:40:15;100514.25;;;7.06;39.65
48964;BME280;34776;48.180;16.420;2023-02-27T11:42:47;100518.69;;;7.04;39.10
48964;BME280;34776;48.180;16.420;2023-02-27T11:47:48;100527.88;;;6.54;39.84
48964;BME280;34776;48.180;16.420;2023-02-27T11:52:49;100528.63;;;5.76;40.25
48964;BME280;34776;48.180;16.420;2023-02-27T11:55:20;100523.09;;;5.43;40.97
48964;BME280;34776;48.180;16.420;2023-02-27T11:57:51;100522.47;;;5.29;41.41
48964;BME280;34776;48.180;16.420;2023-02-27T12:00:22;100524.56;;;5.12;41.68
48964;BME280;34776;48.180;16.420;2023-02-27T12:03:05;100525.59;;;5.01;42.20
48964;BME280;34776;48.180;16.420;2023-02-27T12:05:43;100516.84;;;5.01;42.06
48964;BME280;34776;48.180;16.420;2023-02-27T12:08:16;100517.69;;;5.01;42.28
48964;BME280;34776;48.180;16.420;2023-02-27T12:11:03;100526.34;;;5.09;42.59
48964;BME280;34776;48.180;16.420;2023-02-27T12:13:35;100523.50;;;5.20;42.31
48964;BME280;34776;48.180;16.420;2023-02-27T12:16:40;100520.56;;;5.37;42.05
48964;BME280;34776;48.180;16.420;2023-02-27T12:19:23;100516.03;;;5.45;41.98
48964;BME280;34776;48.180;16.420;2023-02-27T12:22:03;100518.13;;;5.73;41.92
48964;BME280;34776;48.180;16.420;2023-02-27T12:24:52;100525.19;;;6.16;41.35
48964;BME280;34776;48.180;16.420;2023-02-27T12:30:06;100519.94;;;6.15;40.79
48964;BME280;34776;48.180;16.420;2023-02-27T12:32:53;100537.03;;;5.97;41.24
48964;BME280;34776;48.180;16.420;2023-02-27T12:35:29;100526.13;;;5.68;41.71
48964;BME280;34776;48.180;16.420;2023-02-27T12:37:55;100532.34;;;5.66;42.11
48964;BME280;34776;48.180;16.420;2023-02-27T12:40:30;100527.97;;;5.65;41.82
48964;BME280;34776;48.180;16.420;2023-02-27T12:46:05;100529.25;;;5.89;41.81
48964;BME280;34776;48.180;16.420;2023-02-27T12:51:33;100517.75;;;5.92;41.26
48964;BME280;34776;48.180;16.420;2023-02-27T13:05:28;100525.16;;;5.74;41.23
48964;BME280;34776;48.180;16.420;2023-02-27T13:14:16;100528.50;;;5.82;40.49
48964;BME280;34776;48.180;16.420;2023-02-27T13:16:55;100528.53;;;5.79;40.96
48964;BME280;34776;48.180;16.420;2023-02-27T13:22:26;100530.34;;;5.77;41.15
48964;BME280;34776;48.180;16.420;2023-02-27T13:24:55;100527.09;;;5.64;41.27
48964;BME280;34776;48.180;16.420;2023-02-27T13:27:23;100523.94;;;5.45;41.54
48964;BME280;34776;48.180;16.420;2023-02-27T13:37:54;100513.03;;;5.17;41.84
48964;BME280;34776;48.180;16.420;2023-02-27T13:40:40;100517.56;;;5.11;41.18
48964;BME280;34776;48.180;16.420;2023-02-27T13:43:36;100517.69;;;5.03;40.82
48964;BME280;34776;48.180;16.420;2023-02-27T13:46:19;100516.84;;;5.01;41.73
48964;BME280;34776;48.180;16.420;2023-02-27T13:48:50;100510.81;;;4.94;41.76
48964;BME280;34776;48.180;16.420;2023-02-27T13:59:31;100540.16;;;4.71;41.99
48964;BME280;34776;48.180;16.420;2023-02-27T14:01:59;100541.19;;;4.59;42.22
48964;BME280;34776;48.180;16.420;2023-02-27T14:04:32;100532.63;;;4.45;42.42
48964;BME280;34776;48.180;16.420;2023-02-27T14:07:02;100545.06;;;4.37;42.58
48964;BME280;34776;48.180;16.420;2023-02-27T14:09:35;100543.31;;;4.36;42.37
48964;BME280;34776;48.180;16.420;2023-02-27T14:12:03;100535.34;;;4.39;42.68
48964;BME280;34776;48.180;16.420;2023-02-27T14:14:44;100531.06;;;4.35;42.67
48964;BME280;34776;48.180;16.420;2023-02-27T14:17:13;100534.63;;;4.31;42.92
48964;BME280;34776;48.180;16.420;2023-02-27T14:19:57;100530.13;;;4.37;43.08
48964;BME280;34776;48.180;16.420;2023-02-27T14:22:28;100531.09;;;4.32;42.66
48964;BME280;34776;48.180;16.420;2023-02-27T14:24:58;100534.72;;;4.21;43.04
48964;BME280;34776;48.180;16.420;2023-02-27T14:32:53;100534.31;;;4.49;42.52
48964;BME280;34776;48.180;16.420;2023-02-27T14:35:19;100539.50;;;4.55;42.25
48964;BME280;34776;48.180;16.420;2023-02-27T14:37:45;100543.81;;;4.62;41.85
48964;BME280;34776;48.180;16.420;2023-02-27T14:40:26;100550.00;;;4.58;40.77
48964;BME280;34776;48.180;16.420;2023-02-27T14:43:33;100549.28;;;4.47;40.92
48964;BME280;34776;48.180;16.420;2023-02-27T14:46:21;100545.84;;;4.42;40.27
48964;BME280;34776;48.180;16.420;2023-02-27T14:48:52;100544.94;;;4.43;41.46
48964;BME280;34776;48.180;16.420;2023-02-27T14:51:18;100541.34;;;4.50;41.95
48964;BME280;34776;48.180;16.420;2023-02-27T14:53:44;100541.25;;;4.56;41.69
48964;BME280;34776;48.180;16.420;2023-02-27T14:56:17;100545.69;;;4.54;41.16
48964;BME280;34776;48.180;16.420;2023-02-27T14:58:46;100538.72;;;4.48;41.29
48964;BME280;34776;48.180;16.420;2023-02-27T15:01:13;100539.59;;;4.49;41.34
48964;BME280;34776;48.180;16.420;2023-02-27T15:03:51;100535.25;;;4.46;41.11
48964;BME280;34776;48.180;16.420;2023-02-27T15:06:26;100547.41;;;4.55;41.43
48964;BME280;34776;48.180;16.420;2023-02-27T15:08:54;100550.06;;;4.54;41.36
48964;BME280;34776;48.180;16.420;2023-02-27T15:11:22;100558.94;;;4.48;41.67
48964;BME280;34776;48.180;16.420;2023-02-27T15:14:00;100566.84;;;4.45;41.50
48964;BME280;34776;48.180;16.420;2023-02-27T15:16:32;100563.56;;;4.29;41.91
48964;BME280;34776;48.180;16.420;2023-02-27T15:19:05;100564.56;;;4.20;42.25
48964;BME280;34776;48.180;16.420;2023-02-27T15:21:39;100575.09;;;4.20;42.49
48964;BME280;34776;48.180;16.420;2023-02-27T15:24:06;100565.53;;;4.13;42.64